Time,TemperatureF,DewpointF,PressureIn,WindDirection,WindDirectionDegrees,WindSpeedMPH,WindSpeedGustMPH,Humidity,HourlyPrecipIn,Conditions,Clouds,dailyrainin,SoftwareType,DateUTC
2013-04-08 00:11:00,50.8,41.0,29.96,East,90,5.0,7.0,70,0.00,,,0.00,weatherlink.com 1.10,2013-04-08 04:11:00,
2013-04-08 00:26:00,50.6,41.0,29.96,ESE,102,4.0,7.0,69,0.00,,,0.00,weatherlink.com 1.10,2013-04-08 04:26:00,
2013-04-08 00:42:00,50.4,41.0,29.96,East,86,7.0,9.0,70,0.00,,,0.00,weatherlink.com 1.10,2013-04-08 04:42:00,
2013-04-08 00:57:00,49.7,40.0,29.96,ESE,110,3.0,8.0,70,0.00,,,0.00,weatherlink.com 1.10,2013-04-08 04:57:00,
2013-04-08 01:12:00,49.7,40.0,29.96,ESE,111,4.0,9.0,70,0.00,,,0.00,weatherlink.com 1.10,2013-04-08 05:12:00,
2013-04-08 01:27:00,49.4,40.0,29.97,ESE,110,4.0,9.0,71,0.00,,,0.00,weatherlink.com 1.10,2013-04-08 05:27:00,
2013-04-08 01:43:00,48.3,40.0,29.96,ESE,109,4.0,9.0,73,0.00,,,0.00,weatherlink.com 1.10,2013-04-08 05:43:00,
2013-04-08 02:13:00,48.0,40.0,29.96,East,85,5.0,8.0,74,0.00,,,0.00,weatherlink.com 1.10,2013-04-08 06:13:00,
2013-04-08 02:43:00,47.4,40.0,29.95,East,95,9.0,10.0,74,0.00,,,0.00,weatherlink.com 1.10,2013-04-08 06:43:00,
2013-04-08 02:59:00,47.9,40.0,29.95,ESE,108,4.0,9.0,73,0.00,,,0.00,weatherlink.com 1.10,2013-04-08 06:59:00,
2013-04-08 03:15:00,47.8,40.0,29.94,ESE,103,3.0,10.0,73,0.00,,,0.00,weatherlink.com 1.10,2013-04-08 07:15:00,
2013-04-08 03:44:00,47.6,40.0,29.93,East,94,3.0,6.0,74,0.00,,,0.00,weatherlink.com 1.10,2013-04-08 07:44:00,
2013-04-08 04:16:00,47.1,40.0,29.90,ESE,116,1.0,5.0,76,0.00,,,0.00,weatherlink.com 1.10,2013-04-08 08:16:00,
2013-04-08 04:31:00,47.0,40.0,29.90,ESE,103,2.0,5.0,77,0.00,,,0.00,weatherlink.com 1.10,2013-04-08 08:31:00,
2013-04-08 04:46:00,46.9,40.0,29.90,East,92,3.0,6.0,77,0.00,,,0.00,weatherlink.com 1.10,2013-04-08 08:46:00,
2013-04-08 05:01:00,46.5,40.0,29.89,ESE,107,3.0,5.0,78,0.00,,,0.00,weatherlink.com 1.10,2013-04-08 09:01:00,
2013-04-08 05:16:00,46.1,40.0,29.89,ESE,106,2.0,4.0,79,0.00,,,0.00,weatherlink.com 1.10,2013-04-08 09:16:00,
2013-04-08 05:31:00,45.9,40.0,29.89,East,92,3.0,5.0,81,0.00,,,0.00,weatherlink.com 1.10,2013-04-08 09:31:00,
2013-04-08 05:49:00,45.7,41.0,29.89,ESE,111,4.0,8.0,82,0.00,,,0.00,weatherlink.com 1.10,2013-04-08 09:49:00,
2013-04-08 06:02:00,45.8,41.0,29.89,ESE,104,2.0,8.0,82,0.00,,,0.00,weatherlink.com 1.10,2013-04-08 10:02:00,
2013-04-08 06:17:00,46.3,41.0,29.89,East,96,3.0,8.0,81,0.00,,,0.00,weatherlink.com 1.10,2013-04-08 10:17:00,
2013-04-08 07:04:00,47.1,42.0,29.88,East,91,2.0,6.0,81,0.00,,,0.00,weatherlink.com 1.10,2013-04-08 11:04:00,
2013-04-08 07:19:00,47.3,42.0,29.88,East,95,5.0,5.0,82,0.00,,,0.00,weatherlink.com 1.10,2013-04-08 11:19:00,
2013-04-08 07:34:00,47.5,43.0,29.88,East,92,3.0,6.0,83,0.00,,,0.00,weatherlink.com 1.10,2013-04-08 11:34:00,
2013-04-08 07:49:00,47.5,43.0,29.89,East,91,0.0,5.0,83,0.00,,,0.00,weatherlink.com 1.10,2013-04-08 11:49:00,
2013-04-08 08:19:00,48.2,44.0,29.89,East,91,1.0,3.0,85,0.00,,,0.00,weatherlink.com 1.10,2013-04-08 12:19:00,
2013-04-08 08:36:00,48.7,45.0,29.89,ESE,105,3.0,5.0,87,0.00,,,0.00,weatherlink.com 1.10,2013-04-08 12:36:00,
2013-04-08 08:51:00,49.1,45.0,29.88,ESE,115,2.0,5.0,87,0.00,,,0.00,weatherlink.com 1.10,2013-04-08 12:51:00,
2013-04-08 09:06:00,50.1,47.0,29.86,SE,130,4.0,6.0,89,0.00,,,0.00,weatherlink.com 1.10,2013-04-08 13:06:00,
2013-04-08 09:21:00,52.7,50.0,29.85,SSE,149,2.0,8.0,90,0.00,,,0.00,weatherlink.com 1.10,2013-04-08 13:21:00,
2013-04-08 09:36:00,57.2,53.0,29.83,SSE,157,6.0,11.0,87,0.00,,,0.00,weatherlink.com 1.10,2013-04-08 13:36:00,
2013-04-08 09:51:00,60.9,54.0,29.82,SSE,162,9.0,18.0,77,0.00,,,0.00,weatherlink.com 1.10,2013-04-08 13:51:00,
2013-04-08 10:06:00,62.2,53.0,29.82,South,174,7.0,17.0,73,0.00,,,0.00,weatherlink.com 1.10,2013-04-08 14:06:00,
2013-04-08 10:22:00,62.0,53.0,29.81,South,182,5.0,17.0,72,0.00,,,0.00,weatherlink.com 1.10,2013-04-08 14:22:00,
2013-04-08 10:37:00,62.5,53.0,29.81,South,174,5.0,17.0,71,0.00,,,0.00,weatherlink.com 1.10,2013-04-08 14:37:00,
2013-04-08 10:52:00,62.9,53.0,29.80,South,181,9.0,17.0,70,0.00,,,0.00,weatherlink.com 1.10,2013-04-08 14:52:00,
2013-04-08 11:08:00,63.1,53.0,29.80,SSW,194,13.0,20.0,69,0.00,,,0.00,weatherlink.com 1.10,2013-04-08 15:08:00,
2013-04-08 11:23:00,62.3,53.0,29.80,SE,127,7.0,15.0,72,0.00,,,0.00,weatherlink.com 1.10,2013-04-08 15:23:00,
2013-04-08 11:38:00,62.0,54.0,29.80,SW,217,14.0,15.0,74,0.00,,,0.00,weatherlink.com 1.10,2013-04-08 15:38:00,
2013-04-08 11:53:00,63.4,54.0,29.79,SSW,209,13.0,20.0,72,0.00,,,0.00,weatherlink.com 1.10,2013-04-08 15:53:00,
2013-04-08 12:09:00,64.4,54.0,29.80,SSW,205,9.0,19.0,70,0.00,,,0.00,weatherlink.com 1.10,2013-04-08 16:09:00,
2013-04-08 12:25:00,65.6,56.0,29.80,SSW,213,12.0,20.0,70,0.00,,,0.00,weatherlink.com 1.10,2013-04-08 16:25:00,
2013-04-08 12:39:00,67.2,56.0,29.80,SSW,212,23.0,24.0,68,0.00,,,0.00,weatherlink.com 1.10,2013-04-08 16:39:00,
2013-04-08 12:55:00,67.6,56.0,29.79,SW,222,11.0,25.0,67,0.00,,,0.00,weatherlink.com 1.10,2013-04-08 16:55:00,
2013-04-08 13:24:00,67.5,56.0,29.79,SSW,213,11.0,27.0,67,0.00,,,0.00,weatherlink.com 1.10,2013-04-08 17:24:00,
2013-04-08 13:57:00,67.4,56.0,29.79,SSW,205,15.0,26.0,67,0.00,,,0.00,weatherlink.com 1.10,2013-04-08 17:57:00,
2013-04-08 14:12:00,66.7,56.0,29.79,SW,227,9.0,21.0,68,0.00,,,0.00,weatherlink.com 1.10,2013-04-08 18:12:00,
2013-04-08 14:27:00,66.8,57.0,29.79,South,184,5.0,22.0,70,0.00,,,0.00,weatherlink.com 1.10,2013-04-08 18:27:00,
2013-04-08 14:42:00,68.0,57.0,29.79,South,190,9.0,21.0,69,0.00,,,0.00,weatherlink.com 1.10,2013-04-08 18:42:00,
2013-04-08 14:56:00,68.6,58.0,29.79,SSW,211,12.0,22.0,69,0.00,,,0.00,weatherlink.com 1.10,2013-04-08 18:56:00,
2013-04-08 15:26:00,70.6,58.0,29.79,SW,228,17.0,24.0,65,0.00,,,0.00,weatherlink.com 1.10,2013-04-08 19:26:00,
2013-04-08 15:42:00,71.0,58.0,29.79,SW,231,19.0,25.0,64,0.00,,,0.00,weatherlink.com 1.10,2013-04-08 19:42:00,
2013-04-08 15:57:00,72.1,58.0,29.78,SW,217,12.0,32.0,62,0.00,,,0.00,weatherlink.com 1.10,2013-04-08 19:57:00,
2013-04-08 16:12:00,72.3,58.0,29.79,SSW,205,13.0,29.0,62,0.00,,,0.00,weatherlink.com 1.10,2013-04-08 20:12:00,
2013-04-08 16:27:00,72.4,59.0,29.79,SW,234,8.0,23.0,62,0.00,,,0.00,weatherlink.com 1.10,2013-04-08 20:27:00,
2013-04-08 16:43:00,72.1,58.0,29.79,SSW,205,11.0,25.0,62,0.00,,,0.00,weatherlink.com 1.10,2013-04-08 20:43:00,
2013-04-08 17:29:00,72.7,58.0,29.80,SW,220,15.0,23.0,61,0.00,,,0.00,weatherlink.com 1.10,2013-04-08 21:29:00,
2013-04-08 17:44:00,73.1,58.0,29.80,SW,227,11.0,21.0,60,0.00,,,0.00,weatherlink.com 1.10,2013-04-08 21:44:00,
2013-04-08 18:01:00,71.9,59.0,29.81,SSW,207,12.0,17.0,63,0.00,,,0.00,weatherlink.com 1.10,2013-04-08 22:01:00,
2013-04-08 18:14:00,71.7,58.0,29.81,SW,218,13.0,19.0,63,0.00,,,0.00,weatherlink.com 1.10,2013-04-08 22:14:00,
2013-04-08 18:29:00,71.3,58.0,29.82,SW,227,6.0,23.0,64,0.00,,,0.00,weatherlink.com 1.10,2013-04-08 22:29:00,
2013-04-08 18:46:00,71.4,59.0,29.83,SW,225,6.0,20.0,64,0.00,,,0.00,weatherlink.com 1.10,2013-04-08 22:46:00,
2013-04-08 19:01:00,71.6,59.0,29.82,SW,220,5.0,15.0,64,0.00,,,0.00,weatherlink.com 1.10,2013-04-08 23:01:00,
2013-04-08 19:17:00,70.8,58.0,29.83,SW,227,3.0,12.0,65,0.00,,,0.00,weatherlink.com 1.10,2013-04-08 23:17:00,
2013-04-08 19:32:00,69.9,59.0,29.84,SW,222,11.0,14.0,68,0.00,,,0.00,weatherlink.com 1.10,2013-04-08 23:32:00,
2013-04-08 19:46:00,63.8,59.0,29.85,WSW,254,3.0,14.0,84,0.17,,,0.17,weatherlink.com 1.10,2013-04-08 23:46:00,
2013-04-08 20:16:00,63.4,60.0,29.88,SW,236,10.0,22.0,87,0.30,,,0.30,weatherlink.com 1.10,2013-04-09 00:16:00,
2013-04-08 20:32:00,61.6,59.0,29.87,West,259,5.0,12.0,90,0.35,,,0.35,weatherlink.com 1.10,2013-04-09 00:32:00,
2013-04-08 20:49:00,61.5,59.0,29.89,SW,219,6.0,11.0,91,0.18,,,0.35,weatherlink.com 1.10,2013-04-09 00:49:00,
2013-04-08 21:02:00,62.1,60.0,29.89,WSW,242,6.0,10.0,91,0.18,,,0.35,weatherlink.com 1.10,2013-04-09 01:02:00,
2013-04-08 21:17:00,61.9,59.0,29.89,SW,218,1.0,7.0,91,0.01,,,0.35,weatherlink.com 1.10,2013-04-09 01:17:00,
2013-04-08 21:33:00,62.1,60.0,29.91,WSW,245,2.0,6.0,91,0.01,,,0.36,weatherlink.com 1.10,2013-04-09 01:33:00,
2013-04-08 21:48:00,62.3,60.0,29.93,West,263,0.0,7.0,92,0.01,,,0.36,weatherlink.com 1.10,2013-04-09 01:48:00,
2013-04-08 22:03:00,61.9,60.0,29.93,WNW,300,1.0,7.0,92,0.04,,,0.39,weatherlink.com 1.10,2013-04-09 02:03:00,
2013-04-08 22:18:00,61.5,60.0,29.94,NW,310,2.0,4.0,93,0.05,,,0.40,weatherlink.com 1.10,2013-04-09 02:18:00,
2013-04-08 22:34:00,61.3,60.0,29.94,NW,310,0.0,1.0,94,0.04,,,0.40,weatherlink.com 1.10,2013-04-09 02:34:00,
2013-04-08 22:49:00,60.9,59.0,29.95,NW,319,3.0,5.0,93,0.04,,,0.40,weatherlink.com 1.10,2013-04-09 02:49:00,
2013-04-08 23:04:00,59.6,57.0,29.94,NNE,25,0.0,3.0,90,0.00,,,0.40,weatherlink.com 1.10,2013-04-09 03:04:00,
2013-04-08 23:20:00,58.7,56.0,29.95,NNE,25,0.0,0.0,89,0.00,,,0.40,weatherlink.com 1.10,2013-04-09 03:20:00,
2013-04-08 23:37:00,57.9,55.0,29.97,NNE,25,0.0,0.0,89,0.00,,,0.40,weatherlink.com 1.10,2013-04-09 03:37:00,
2013-04-08 23:51:00,57.5,54.0,29.97,NNE,25,0.0,0.0,89,0.00,,,0.40,weatherlink.com 1.10,2013-04-09 03:51:00,